sensor_id;sensor_type;location;lat;lon;timestamp;temperature;humidity
20366;DHT22;10341;49.894;8.822;2023-03-26T00:04:16;9.50;99.90
20366;DHT22;10341;49.894;8.822;2023-03-26T00:09:39;9.40;99.90
20366;DHT22;10341;49.894;8.822;2023-03-26T00:14:59;9.40;99.90
20366;DHT22;10341;49.894;8.822;2023-03-26T00:20:19;9.40;99.90
20366;DHT22;10341;49.894;8.822;2023-03-26T00:25:39;9.40;99.90
20366;DHT22;10341;49.894;8.822;2023-03-26T00:31:02;9.30;99.90
20366;DHT22;10341;49.894;8.822;2023-03-26T00:36:23;9.20;99.90
20366;DHT22;10341;49.894;8.822;2023-03-26T00:41:43;9.00;99.90
20366;DHT22;10341;49.894;8.822;2023-03-26T00:47:03;8.90;99.90
20366;DHT22;10341;49.894;8.822;2023-03-26T00:52:23;8.90;99.90
20366;DHT22;10341;49.894;8.822;2023-03-26T00:57:42;8.80;99.90
20366;DHT22;10341;49.894;8.822;2023-03-26T01:03:05;8.80;99.90
20366;DHT22;10341;49.894;8.822;2023-03-26T01:08:34;8.80;99.90
20366;DHT22;10341;49.894;8.822;2023-03-26T01:14:00;8.70;99.90
20366;DHT22;10341;49.894;8.822;2023-03-26T01:24:59;8.90;99.90
20366;DHT22;10341;49.894;8.822;2023-03-26T01:30:41;8.90;99.90
20366;DHT22;10341;49.894;8.822;2023-03-26T01:47:16;8.70;99.90
20366;DHT22;10341;49.894;8.822;2023-03-26T01:52:36;8.60;99.90
20366;DHT22;10341;49.894;8.822;2023-03-26T02:03:34;8.60;99.90
20366;DHT22;10341;49.894;8.822;2023-03-26T02:09:04;8.50;99.90
20366;DHT22;10341;49.894;8.822;2023-03-26T02:14:28;8.50;99.90
20366;DHT22;10341;49.894;8.822;2023-03-26T02:19:48;8.50;99.90
20366;DHT22;10341;49.894;8.822;2023-03-26T02:25:09;8.30;99.90
20366;DHT22;10341;49.894;8.822;2023-03-26T02:30:29;8.40;99.90
20366;DHT22;10341;49.894;8.822;2023-03-26T02:35:50;8.20;99.90
20366;DHT22;10341;49.894;8.822;2023-03-26T02:41:10;8.10;99.90
20366;DHT22;10341;49.894;8.822;2023-03-26T02:46:44;8.20;99.90
20366;DHT22;10341;49.894;8.822;2023-03-26T02:52:24;8.20;99.90
20366;DHT22;10341;49.894;8.822;2023-03-26T02:57:45;8.40;99.90
20366;DHT22;10341;49.894;8.822;2023-03-26T03:03:10;8.50;99.90
20366;DHT22;10341;49.894;8.822;2023-03-26T03:08:48;8.60;99.90
20366;DHT22;10341;49.894;8.822;2023-03-26T03:14:26;8.60;99.90
20366;DHT22;10341;49.894;8.822;2023-03-26T03:19:46;8.70;99.90
20366;DHT22;10341;49.894;8.822;2023-03-26T03:25:06;8.70;99.90
20366;DHT22;10341;49.894;8.822;2023-03-26T03:30:33;8.70;99.90
20366;DHT22;10341;49.894;8.822;2023-03-26T03:36:05;8.60;99.90
20366;DHT22;10341;49.894;8.822;2023-03-26T03:41:30;8.60;99.90
20366;DHT22;10341;49.894;8.822;2023-03-26T03:46:51;8.50;99.90
20366;DHT22;10341;49.894;8.822;2023-03-26T03:52:14;8.50;99.90
20366;DHT22;10341;49.894;8.822;2023-03-26T03:57:35;8.50;99.90
20366;DHT22;10341;49.894;8.822;2023-03-26T04:02:59;8.50;99.90
20366;DHT22;10341;49.894;8.822;2023-03-26T04:08:24;8.50;99.90
20366;DHT22;10341;49.894;8.822;2023-03-26T04:13:48;8.50;99.90
20366;DHT22;10341;49.894;8.822;2023-03-26T04:19:17;8.40;99.90
20366;DHT22;10341;49.894;8.822;2023-03-26T04:24:36;8.40;99.90
20366;DHT22;10341;49.894;8.822;2023-03-26T04:30:18;8.30;99.90
20366;DHT22;10341;49.894;8.822;2023-03-26T04:35:43;8.40;99.90
20366;DHT22;10341;49.894;8.822;2023-03-26T04:41:05;8.30;99.90
20366;DHT22;10341;49.894;8.822;2023-03-26T04:46:38;8.30;99.90
20366;DHT22;10341;49.894;8.822;2023-03-26T04:52:14;8.10;99.90
20366;DHT22;10341;49.894;8.822;2023-03-26T04:57:43;8.00;99.90
20366;DHT22;10341;49.894;8.822;2023-03-26T05:03:26;8.00;99.90
20366;DHT22;10341;49.894;8.822;2023-03-26T05:08:52;7.90;99.90
20366;DHT22;10341;49.894;8.822;2023-03-26T05:14:31;8.00;99.90
20366;DHT22;10341;49.894;8.822;2023-03-26T05:19:53;7.90;99.90
20366;DHT22;10341;49.894;8.822;2023-03-26T05:25:13;7.90;99.90
20366;DHT22;10341;49.894;8.822;2023-03-26T05:30:32;7.80;99.90
20366;DHT22;10341;49.894;8.822;2023-03-26T05:36:00;7.70;99.90
20366;DHT22;10341;49.894;8.822;2023-03-26T05:41:22;7.70;99.90
20366;DHT22;10341;49.894;8.822;2023-03-26T05:46:42;7.60;99.90
20366;DHT22;10341;49.894;8.822;2023-03-26T05:52:06;7.60;99.90
20366;DHT22;10341;49.894;8.822;2023-03-26T05:57:48;7.60;99.90
20366;DHT22;10341;49.894;8.822;2023-03-26T06:03:26;7.70;99.90
20366;DHT22;10341;49.894;8.822;2023-03-26T06:09:06;7.70;99.90
20366;DHT22;10341;49.894;8.822;2023-03-26T06:14:25;7.80;99.90
20366;DHT22;10341;49.894;8.822;2023-03-26T06:20:07;7.90;99.90
20366;DHT22;10341;49.894;8.822;2023-03-26T06:25:31;8.00;99.90
20366;DHT22;10341;49.894;8.822;2023-03-26T06:31:01;8.00;99.90
20366;DHT22;10341;49.894;8.822;2023-03-26T06:36:43;8.00;99.90
20366;DHT22;10341;49.894;8.822;2023-03-26T06:42:03;8.10;99.90
20366;DHT22;10341;49.894;8.822;2023-03-26T06:47:43;8.30;99.90
20366;DHT22;10341;49.894;8.822;2023-03-26T06:53:29;8.40;99.90
20366;DHT22;10341;49.894;8.822;2023-03-26T06:59:08;8.50;99.90
20366;DHT22;10341;49.894;8.822;2023-03-26T07:04:51;8.60;99.90
20366;DHT22;10341;49.894;8.822;2023-03-26T07:10:29;8.50;99.90
20366;DHT22;10341;49.894;8.822;2023-03-26T07:15:58;8.40;99.90
20366;DHT22;10341;49.894;8.822;2023-03-26T07:21:29;8.40;99.90
20366;DHT22;10341;49.894;8.822;2023-03-26T07:26:50;8.50;99.90
20366;DHT22;10341;49.894;8.822;2023-03-26T07:38:31;8.50;99.90
20366;DHT22;10341;49.894;8.822;2023-03-26T07:50:09;8.50;99.90
20366;DHT22;10341;49.894;8.822;2023-03-26T07:57:15;8.50;99.90
20366;DHT22;10341;49.894;8.822;2023-03-26T08:08:46;8.30;99.90
20366;DHT22;10341;49.894;8.822;2023-03-26T08:20:30;8.40;99.90
20366;DHT22;10341;49.894;8.822;2023-03-26T08:31:35;8.50;99.90
20366;DHT22;10341;49.894;8.822;2023-03-26T08:36:55;8.70;99.90
20366;DHT22;10341;49.894;8.822;2023-03-26T08:48:22;8.80;99.90
20366;DHT22;10341;49.894;8.822;2023-03-26T08:54:06;8.80;99.90
20366;DHT22;10341;49.894;8.822;2023-03-26T08:59:50;8.70;99.90
20366;DHT22;10341;49.894;8.822;2023-03-26T09:05:34;8.60;99.90
20366;DHT22;10341;49.894;8.822;2023-03-26T09:17:00;8.60;99.90
20366;DHT22;10341;49.894;8.822;2023-03-26T09:22:47;8.60;99.90
20366;DHT22;10341;49.894;8.822;2023-03-26T09:34:30;8.50;99.90
20366;DHT22;10341;49.894;8.822;2023-03-26T09:56:52;9.10;99.90
20366;DHT22;10341;49.894;8.822;2023-03-26T10:08:14;9.00;99.90
20366;DHT22;10341;49.894;8.822;2023-03-26T10:13:53;8.80;99.90
20366;DHT22;10341;49.894;8.822;2023-03-26T10:30:56;10.10;99.90
20366;DHT22;10341;49.894;8.822;2023-03-26T10:42:06;12.90;99.90
20366;DHT22;10341;49.894;8.822;2023-03-26T10:47:52;12.80;99.90
20366;DHT22;10341;49.894;8.822;2023-03-26T10:53:40;13.70;99.90
20366;DHT22;10341;49.894;8.822;2023-03-26T10:59:10;15.50;99.90
20366;DHT22;10341;49.894;8.822;2023-03-26T11:10:12;14.30;99.90
20366;DHT22;10341;49.894;8.822;2023-03-26T11:15:38;14.10;99.90
20366;DHT22;10341;49.894;8.822;2023-03-26T11:26:53;15.90;99.90
20366;DHT22;10341;49.894;8.822;2023-03-26T11:32:29;14.70;99.90
20366;DHT22;10341;49.894;8.822;2023-03-26T11:38:00;13.50;99.90
20366;DHT22;10341;49.894;8.822;2023-03-26T11:43:25;13.40;99.90
20366;DHT22;10341;49.894;8.822;2023-03-26T11:48:49;15.80;99.90
20366;DHT22;10341;49.894;8.822;2023-03-26T11:54:11;15.10;99.90
20366;DHT22;10341;49.894;8.822;2023-03-26T11:59:46;14.50;99.90
20366;DHT22;10341;49.894;8.822;2023-03-26T12:05:15;13.40;99.90
20366;DHT22;10341;49.894;8.822;2023-03-26T12:10:37;12.30;99.90
20366;DHT22;10341;49.894;8.822;2023-03-26T12:16:05;11.50;99.90
20366;DHT22;10341;49.894;8.822;2023-03-26T12:21:26;11.40;99.90
20366;DHT22;10341;49.894;8.822;2023-03-26T12:26:45;11.40;99.90
20366;DHT22;10341;49.894;8.822;2023-03-26T12:32:12;11.30;99.90
20366;DHT22;10341;49.894;8.822;2023-03-26T12:37:37;11.70;99.90
20366;DHT22;10341;49.894;8.822;2023-03-26T12:42:59;12.40;99.90
20366;DHT22;10341;49.894;8.822;2023-03-26T12:48:19;14.20;99.90
20366;DHT22;10341;49.894;8.822;2023-03-26T13:11:22;16.40;99.90
20366;DHT22;10341;49.894;8.822;2023-03-26T13:16:50;15.00;99.90
20366;DHT22;10341;49.894;8.822;2023-03-26T13:22:36;17.30;99.90
20366;DHT22;10341;49.894;8.822;2023-03-26T13:39:21;17.80;97.10
20366;DHT22;10341;49.894;8.822;2023-03-26T13:50:26;17.60;97.80
20366;DHT22;10341;49.894;8.822;2023-03-26T13:55:51;16.40;98.90
20366;DHT22;10341;49.894;8.822;2023-03-26T14:01:18;15.70;99.90
20366;DHT22;10341;49.894;8.822;2023-03-26T14:07:32;15.30;99.90
20366;DHT22;10341;49.894;8.822;2023-03-26T14:12:47;15.60;99.90
20366;DHT22;10341;49.894;8.822;2023-03-26T14:18:32;16.70;99.50
20366;DHT22;10341;49.894;8.822;2023-03-26T14:24:03;15.80;99.80
20366;DHT22;10341;49.894;8.822;2023-03-26T14:40:55;16.00;99.90
20366;DHT22;10341;49.894;8.822;2023-03-26T14:46:48;17.10;98.10
20366;DHT22;10341;49.894;8.822;2023-03-26T14:52:23;19.00;96.00
20366;DHT22;10341;49.894;8.822;2023-03-26T14:57:55;18.10;96.00
20366;DHT22;10341;49.894;8.822;2023-03-26T15:09:12;15.90;99.50
20366;DHT22;10341;49.894;8.822;2023-03-26T15:44:10;15.00;97.80
20366;DHT22;10341;49.894;8.822;2023-03-26T15:49:40;15.60;97.70
20366;DHT22;10341;49.894;8.822;2023-03-26T16:00:25;14.20;99.20
20366;DHT22;10341;49.894;8.822;2023-03-26T16:11:14;13.00;99.90
20366;DHT22;10341;49.894;8.822;2023-03-26T16:16:56;12.60;99.90
20366;DHT22;10341;49.894;8.822;2023-03-26T16:39:37;9.30;99.90
20366;DHT22;10341;49.894;8.822;2023-03-26T16:51:02;8.70;99.90
20366;DHT22;10341;49.894;8.822;2023-03-26T17:13:48;8.30;99.90
20366;DHT22;10341;49.894;8.822;2023-03-26T17:19:55;8.40;99.90
20366;DHT22;10341;49.894;8.822;2023-03-26T17:25:24;8.30;99.90
20366;DHT22;10341;49.894;8.822;2023-03-26T17:36:29;8.30;99.90
20366;DHT22;10341;49.894;8.822;2023-03-26T17:41:50;8.40;99.90
20366;DHT22;10341;49.894;8.822;2023-03-26T17:47:22;8.40;99.90
20366;DHT22;10341;49.894;8.822;2023-03-26T17:53:22;8.30;99.90
20366;DHT22;10341;49.894;8.822;2023-03-26T17:58:46;8.20;99.90
20366;DHT22;10341;49.894;8.822;2023-03-26T18:04:12;8.20;99.90
20366;DHT22;10341;49.894;8.822;2023-03-26T18:09:49;8.20;99.90
20366;DHT22;10341;49.894;8.822;2023-03-26T18:15:31;8.20;99.90
20366;DHT22;10341;49.894;8.822;2023-03-26T18:20:53;8.30;99.90
20366;DHT22;10341;49.894;8.822;2023-03-26T18:26:15;8.30;99.90
20366;DHT22;10341;49.894;8.822;2023-03-26T18:31:40;8.30;99.90
20366;DHT22;10341;49.894;8.822;2023-03-26T18:42:32;8.30;99.90
20366;DHT22;10341;49.894;8.822;2023-03-26T18:47:55;8.30;99.90
20366;DHT22;10341;49.894;8.822;2023-03-26T18:53:28;8.30;99.90
20366;DHT22;10341;49.894;8.822;2023-03-26T18:58:51;8.30;99.90
20366;DHT22;10341;49.894;8.822;2023-03-26T19:04:14;8.30;99.90
20366;DHT22;10341;49.894;8.822;2023-03-26T19:09:34;8.20;99.90
20366;DHT22;10341;49.894;8.822;2023-03-26T19:20:27;8.10;99.90
20366;DHT22;10341;49.894;8.822;2023-03-26T19:25:54;8.10;99.90
20366;DHT22;10341;49.894;8.822;2023-03-26T19:36:34;8.00;99.90
20366;DHT22;10341;49.894;8.822;2023-03-26T19:41:54;7.90;99.90
20366;DHT22;10341;49.894;8.822;2023-03-26T19:47:18;7.90;99.90
20366;DHT22;10341;49.894;8.822;2023-03-26T19:52:38;7.80;99.90
20366;DHT22;10341;49.894;8.822;2023-03-26T19:57:57;7.80;99.90
20366;DHT22;10341;49.894;8.822;2023-03-26T20:03:23;7.70;99.90
20366;DHT22;10341;49.894;8.822;2023-03-26T20:08:43;7.70;99.90
20366;DHT22;10341;49.894;8.822;2023-03-26T20:14:14;7.60;99.90
20366;DHT22;10341;49.894;8.822;2023-03-26T20:19:34;7.60;99.90
20366;DHT22;10341;49.894;8.822;2023-03-26T20:24:53;7.50;99.90
20366;DHT22;10341;49.894;8.822;2023-03-26T20:30:13;7.60;99.90
20366;DHT22;10341;49.894;8.822;2023-03-26T20:35:33;7.50;99.90
20366;DHT22;10341;49.894;8.822;2023-03-26T20:40:53;7.60;99.90
20366;DHT22;10341;49.894;8.822;2023-03-26T20:46:16;7.50;99.90
20366;DHT22;10341;49.894;8.822;2023-03-26T20:51:38;7.50;99.90
20366;DHT22;10341;49.894;8.822;2023-03-26T20:56:57;7.50;99.90
20366;DHT22;10341;49.894;8.822;2023-03-26T21:02:16;7.50;99.90
20366;DHT22;10341;49.894;8.822;2023-03-26T21:07:36;7.50;99.90
20366;DHT22;10341;49.894;8.822;2023-03-26T21:13:09;7.50;99.90
20366;DHT22;10341;49.894;8.822;2023-03-26T21:18:29;7.50;99.90
20366;DHT22;10341;49.894;8.822;2023-03-26T21:23:56;7.50;99.90
20366;DHT22;10341;49.894;8.822;2023-03-26T21:29:18;7.50;99.90
20366;DHT22;10341;49.894;8.822;2023-03-26T21:34:38;7.50;99.90
20366;DHT22;10341;49.894;8.822;2023-03-26T21:39:58;7.50;99.90
20366;DHT22;10341;49.894;8.822;2023-03-26T21:45:20;7.50;99.90
20366;DHT22;10341;49.894;8.822;2023-03-26T21:50:39;7.40;99.90
20366;DHT22;10341;49.894;8.822;2023-03-26T22:01:31;7.30;99.90
20366;DHT22;10341;49.894;8.822;2023-03-26T22:07:03;7.20;99.90
20366;DHT22;10341;49.894;8.822;2023-03-26T22:12:25;7.20;99.90
20366;DHT22;10341;49.894;8.822;2023-03-26T22:17:45;7.10;99.90
20366;DHT22;10341;49.894;8.822;2023-03-26T22:23:11;7.00;99.90
20366;DHT22;10341;49.894;8.822;2023-03-26T22:28:31;6.80;99.90
20366;DHT22;10341;49.894;8.822;2023-03-26T22:33:51;6.80;99.90
20366;DHT22;10341;49.894;8.822;2023-03-26T22:39:11;6.80;99.90
20366;DHT22;10341;49.894;8.822;2023-03-26T22:44:30;6.80;99.90
20366;DHT22;10341;49.894;8.822;2023-03-26T22:49:50;6.70;99.90
20366;DHT22;10341;49.894;8.822;2023-03-26T22:55:09;6.60;99.90
20366;DHT22;10341;49.894;8.822;2023-03-26T23:00:29;6.60;99.90
20366;DHT22;10341;49.894;8.822;2023-03-26T23:05:58;6.50;99.90
20366;DHT22;10341;49.894;8.822;2023-03-26T23:11:19;6.40;99.90
20366;DHT22;10341;49.894;8.822;2023-03-26T23:16:39;6.30;99.90
20366;DHT22;10341;49.894;8.822;2023-03-26T23:22:00;6.20;99.90
20366;DHT22;10341;49.894;8.822;2023-03-26T23:27:20;6.10;99.90
20366;DHT22;10341;49.894;8.822;2023-03-26T23:32:40;6.00;99.90
20366;DHT22;10341;49.894;8.822;2023-03-26T23:38:00;5.90;99.90
20366;DHT22;10341;49.894;8.822;2023-03-26T23:43:20;5.90;99.90
20366;DHT22;10341;49.894;8.822;2023-03-26T23:48:39;5.80;99.90
20366;DHT22;10341;49.894;8.822;2023-03-26T23:54:00;5.80;99.90
20366;DHT22;10341;49.894;8.822;2023-03-26T23:59:20;5.80;99.90
